createdAt,value
2018-06-28T00:00:47.684Z,82.60
2018-06-28T00:03:16.058Z,82.80
2018-06-28T00:05:44.441Z,82.90
2018-06-28T00:08:12.790Z,83.00
2018-06-28T00:10:41.192Z,83.10
2018-06-28T00:13:09.605Z,83.00
2018-06-28T00:15:37.928Z,82.50
2018-06-28T00:18:06.402Z,83.60
2018-06-28T00:20:34.808Z,82.80
2018-06-28T00:23:03.559Z,83.30
2018-06-28T00:25:32.002Z,83.30
2018-06-28T00:28:00.429Z,83.10
2018-06-28T00:30:28.845Z,82.80
2018-06-28T00:32:57.639Z,83.40
2018-06-28T00:35:25.964Z,83.40
2018-06-28T00:37:54.464Z,83.70
2018-06-28T00:40:22.904Z,83.70
2018-06-28T00:42:51.325Z,84.30
2018-06-28T00:45:19.781Z,83.40
2018-06-28T00:47:48.189Z,83.50
2018-06-28T00:50:16.625Z,83.80
2018-06-28T00:52:45.038Z,83.90
2018-06-28T00:55:13.424Z,83.40
2018-06-28T00:57:42.052Z,84.20
2018-06-28T01:00:10.493Z,84.20
2018-06-28T01:02:38.914Z,83.90
2018-06-28T01:05:07.345Z,84.50
2018-06-28T01:07:35.764Z,84.80
2018-06-28T01:10:04.740Z,84.80
2018-06-28T01:12:33.126Z,84.70
2018-06-28T01:15:01.515Z,84.90
2018-06-28T01:17:30.332Z,85.10
2018-06-28T01:19:59.063Z,84.90
2018-06-28T01:22:27.433Z,84.80
2018-06-28T01:24:55.813Z,85.10
2018-06-28T01:27:24.197Z,85.20
2018-06-28T01:29:52.948Z,85.50
2018-06-28T01:32:21.322Z,85.50
2018-06-28T01:34:49.751Z,85.70
2018-06-28T01:37:18.431Z,85.60
2018-06-28T01:39:47.524Z,86.10
2018-06-28T01:43:25.796Z,86.00
2018-06-28T01:45:54.216Z,86.20
2018-06-28T01:48:22.657Z,86.10
2018-06-28T01:50:51.053Z,86.30
2018-06-28T01:53:19.573Z,86.40
2018-06-28T01:55:48.933Z,86.10
2018-06-28T01:58:17.861Z,86.50
2018-06-28T02:00:46.240Z,86.20
2018-06-28T02:03:15.012Z,86.70
2018-06-28T02:05:43.441Z,86.40
2018-06-28T02:08:11.960Z,87.20
2018-06-28T02:10:40.373Z,87.30
2018-06-28T02:13:08.781Z,87.50
2018-06-28T02:15:37.285Z,87.50
2018-06-28T02:18:06.418Z,87.70
2018-06-28T02:20:34.852Z,87.70
2018-06-28T02:23:03.478Z,87.60
2018-06-28T02:25:32.015Z,87.50
2018-06-28T02:28:00.491Z,87.80
2018-06-28T02:32:57.191Z,87.40
2018-06-28T02:35:26.317Z,87.90
2018-06-28T02:37:55.858Z,88.30
2018-06-28T02:40:24.271Z,88.80
2018-06-28T02:42:52.784Z,88.80
2018-06-28T02:45:21.211Z,88.30
2018-06-28T02:47:50.276Z,88.30
2018-06-28T02:50:18.639Z,88.90
2018-06-28T02:52:47.020Z,88.50
2018-06-28T02:55:15.501Z,88.50
2018-06-28T02:57:43.954Z,88.00
2018-06-28T03:00:12.351Z,87.80
2018-06-28T03:02:40.815Z,88.20
2018-06-28T03:05:09.373Z,88.50
2018-06-28T03:07:37.824Z,88.80
2018-06-28T03:10:06.644Z,89.10
2018-06-28T03:12:35.003Z,88.80
2018-06-28T03:15:03.475Z,88.90
2018-06-28T03:17:32.201Z,88.50
2018-06-28T03:20:01.995Z,89.10
2018-06-28T03:22:30.439Z,88.70
2018-06-28T03:24:59.273Z,88.60
2018-06-28T03:27:27.670Z,88.50
2018-06-28T03:29:56.160Z,88.80
2018-06-28T03:32:24.851Z,89.20
2018-06-28T03:34:53.368Z,88.60
2018-06-28T03:37:22.091Z,88.00
2018-06-28T03:39:50.508Z,88.50
2018-06-28T03:42:18.966Z,88.40
2018-06-28T03:44:47.701Z,88.30
2018-06-28T03:47:16.089Z,87.90
2018-06-28T03:49:44.508Z,87.50
2018-06-28T03:52:12.890Z,87.60
2018-06-28T03:54:41.267Z,87.60
2018-06-28T03:57:09.717Z,88.10
2018-06-28T03:59:38.059Z,88.00
2018-06-28T04:02:07.109Z,88.50
2018-06-28T04:04:35.776Z,88.90
2018-06-28T04:07:04.205Z,89.60
2018-06-28T04:09:32.626Z,88.60
2018-06-28T04:12:01.341Z,88.10
2018-06-28T04:14:29.723Z,88.80
2018-06-28T04:16:58.167Z,88.90
2018-06-28T04:19:26.550Z,88.50
2018-06-28T04:21:55.540Z,88.20
2018-06-28T04:24:23.880Z,88.50
2018-06-28T04:26:52.306Z,88.70
2018-06-28T04:29:21.728Z,90.10
2018-06-28T04:31:50.224Z,89.20
2018-06-28T04:34:18.641Z,88.90
2018-06-28T04:36:47.063Z,89.20
2018-06-28T04:39:15.413Z,89.20
2018-06-28T04:41:43.792Z,89.10
2018-06-28T04:46:40.706Z,89.20
2018-06-28T04:49:10.521Z,88.90
2018-06-28T04:51:39.256Z,88.80
2018-06-28T04:54:07.698Z,88.30
2018-06-28T04:56:36.111Z,88.00
2018-06-28T04:59:04.577Z,87.70
2018-06-28T05:01:32.999Z,87.50
2018-06-28T05:04:01.337Z,87.10
2018-06-28T05:06:29.751Z,86.80
2018-06-28T05:08:58.155Z,86.50
2018-06-28T05:11:26.561Z,85.90
2018-06-28T05:13:55.577Z,86.10
2018-06-28T05:16:24.169Z,86.40
2018-06-28T05:18:53.089Z,85.50
2018-06-28T05:21:21.761Z,84.80
2018-06-28T05:23:50.267Z,84.70
2018-06-28T05:26:19.012Z,84.60
2018-06-28T05:28:47.408Z,84.20
2018-06-28T05:31:15.867Z,83.50
2018-06-28T05:33:44.293Z,83.70
2018-06-28T05:36:12.653Z,83.40
2018-06-28T05:38:41.077Z,83.10
2018-06-28T05:41:09.881Z,82.00
2018-06-28T05:43:38.271Z,81.80
2018-06-28T05:46:06.698Z,81.40
2018-06-28T05:48:35.399Z,81.00
2018-06-28T05:51:04.052Z,80.50
2018-06-28T05:53:32.413Z,80.20
2018-06-28T05:56:00.808Z,80.30
2018-06-28T05:58:29.219Z,79.70
2018-06-28T06:00:57.697Z,79.70
2018-06-28T06:03:26.141Z,79.20
2018-06-28T06:05:55.281Z,77.70
2018-06-28T06:08:23.656Z,77.60
2018-06-28T06:10:52.344Z,77.50
2018-06-28T06:13:20.696Z,77.00
2018-06-28T06:15:49.150Z,76.80
2018-06-28T06:18:19.098Z,76.20
2018-06-28T06:20:48.656Z,77.00
2018-06-28T06:23:17.048Z,74.90
2018-06-28T06:25:45.669Z,73.80
2018-06-28T06:28:14.069Z,73.50
2018-06-28T06:30:42.448Z,73.30
2018-06-28T06:33:10.832Z,73.20
2018-06-28T06:35:39.221Z,70.80
2018-06-28T06:38:07.662Z,70.70
2018-06-28T06:40:36.780Z,69.60
2018-06-28T06:43:05.345Z,69.10
2018-06-28T06:45:33.787Z,67.90
2018-06-28T06:48:02.158Z,66.70
2018-06-28T06:50:30.542Z,64.70
2018-06-28T06:52:58.962Z,63.70
2018-06-28T06:55:27.338Z,62.80
2018-06-28T06:57:55.844Z,61.40
2018-06-28T07:00:24.996Z,61.40
2018-06-28T07:02:53.381Z,62.50
2018-06-28T07:05:22.365Z,60.80
2018-06-28T07:07:50.783Z,60.40
2018-06-28T07:10:19.507Z,59.70
2018-06-28T07:12:47.920Z,59.90
2018-06-28T07:15:16.386Z,58.70
2018-06-28T07:17:44.802Z,58.70
2018-06-28T07:20:13.266Z,58.30
2018-06-28T07:22:41.787Z,56.90
2018-06-28T07:25:10.124Z,57.90
2018-06-28T07:27:38.752Z,57.20
2018-06-28T07:30:07.487Z,56.10
2018-06-28T07:32:35.936Z,55.50
2018-06-28T07:35:04.512Z,56.30
2018-06-28T07:37:32.978Z,55.90
2018-06-28T07:40:01.431Z,54.50
2018-06-28T07:42:29.838Z,54.60
2018-06-28T07:44:58.236Z,54.60
2018-06-28T07:47:26.679Z,52.50
2018-06-28T07:49:55.129Z,52.40
2018-06-28T07:52:23.673Z,50.10
2018-06-28T07:54:52.197Z,49.40
2018-06-28T07:57:20.688Z,50.20
2018-06-28T07:59:49.094Z,51.60
2018-06-28T08:02:17.680Z,49.50
2018-06-28T08:04:46.402Z,51.10
2018-06-28T08:07:14.940Z,52.40
2018-06-28T08:12:11.483Z,51.90
2018-06-28T08:14:39.953Z,49.80
2018-06-28T08:17:08.698Z,49.60
2018-06-28T08:19:37.586Z,47.40
2018-06-28T08:22:06.056Z,48.00
2018-06-28T08:24:34.441Z,48.00
2018-06-28T08:27:02.854Z,46.30
2018-06-28T08:29:31.277Z,49.00
2018-06-28T08:31:59.751Z,46.80
2018-06-28T08:34:28.655Z,46.40
2018-06-28T08:36:57.323Z,46.10
2018-06-28T08:39:25.797Z,45.90
2018-06-28T08:41:54.584Z,45.90
2018-06-28T08:44:23.039Z,42.60
2018-06-28T08:46:51.601Z,42.60
2018-06-28T08:49:19.981Z,43.40
2018-06-28T08:51:48.438Z,42.30
2018-06-28T08:54:17.162Z,41.50
2018-06-28T08:56:45.610Z,40.10
2018-06-28T08:59:14.037Z,41.20
2018-06-28T09:01:42.576Z,41.20
2018-06-28T09:04:11.371Z,41.20
2018-06-28T09:06:39.793Z,39.90
2018-06-28T09:09:09.849Z,38.10
2018-06-28T09:11:38.469Z,37.20
2018-06-28T09:14:07.054Z,36.70
2018-06-28T09:16:35.526Z,37.10
2018-06-28T09:19:03.882Z,37.80
2018-06-28T09:21:32.358Z,37.30
2018-06-28T09:24:00.842Z,37.30
2018-06-28T09:26:29.297Z,36.20
2018-06-28T09:28:57.720Z,35.50
2018-06-28T09:31:26.346Z,34.60
2018-06-28T09:33:55.027Z,35.70
2018-06-28T09:36:23.428Z,37.10
2018-06-28T09:38:51.780Z,39.30
2018-06-28T09:41:20.258Z,40.20
2018-06-28T09:43:48.969Z,40.00
2018-06-28T09:46:17.366Z,36.60
2018-06-28T09:48:45.786Z,36.50
2018-06-28T09:51:14.127Z,35.00
2018-06-28T09:53:42.581Z,36.20
2018-06-28T09:56:11.045Z,38.70
2018-06-28T09:58:39.545Z,39.00
2018-06-28T10:06:04.770Z,39.40
2018-06-28T10:08:33.203Z,38.30
2018-06-28T10:11:01.650Z,36.40
2018-06-28T10:13:30.021Z,37.20
2018-06-28T10:15:58.425Z,35.60
2018-06-28T10:18:26.843Z,35.70
2018-06-28T10:20:55.244Z,35.90
2018-06-28T10:23:23.644Z,35.00
2018-06-28T10:25:52.180Z,35.60
2018-06-28T10:30:49.044Z,35.70
2018-06-28T10:33:17.383Z,35.00
2018-06-28T10:35:45.863Z,35.60
2018-06-28T10:38:14.272Z,35.30
2018-06-28T10:40:42.636Z,34.00
2018-06-28T10:43:11.058Z,33.80
2018-06-28T10:45:40.610Z,33.80
2018-06-28T10:48:08.997Z,34.00
2018-06-28T10:50:37.466Z,34.70
2018-06-28T10:53:05.915Z,35.10
2018-06-28T10:55:34.308Z,35.40
2018-06-28T10:58:02.691Z,35.20
2018-06-28T11:00:31.141Z,35.30
2018-06-28T11:02:59.640Z,34.40
2018-06-28T11:05:27.993Z,34.10
2018-06-28T11:07:56.375Z,34.10
2018-06-28T11:10:24.741Z,35.30
2018-06-28T11:12:53.245Z,36.60
2018-06-28T11:15:21.655Z,36.90
2018-06-28T11:17:50.129Z,35.30
2018-06-28T11:20:18.517Z,34.80
2018-06-28T11:22:46.923Z,34.80
2018-06-28T11:25:15.362Z,33.50
2018-06-28T11:27:43.803Z,32.80
2018-06-28T11:30:12.939Z,34.10
2018-06-28T11:32:41.387Z,34.20
2018-06-28T11:35:09.789Z,34.40
2018-06-28T11:37:38.163Z,35.00
2018-06-28T11:42:34.856Z,34.50
2018-06-28T11:45:03.576Z,34.20
2018-06-28T11:47:31.956Z,33.20
2018-06-28T11:50:00.334Z,34.10
2018-06-28T11:52:29.529Z,32.10
2018-06-28T11:54:57.984Z,33.50
2018-06-28T11:57:26.423Z,32.40
2018-06-28T11:59:54.901Z,32.20
2018-06-28T12:02:23.221Z,33.20
2018-06-28T12:04:51.623Z,33.30
2018-06-28T12:07:20.043Z,30.30
2018-06-28T12:09:48.439Z,31.80
2018-06-28T12:12:18.314Z,32.60
2018-06-28T12:14:46.682Z,33.80
2018-06-28T12:17:15.165Z,35.70
2018-06-28T12:19:43.582Z,35.30
2018-06-28T12:22:11.939Z,36.50
2018-06-28T12:24:40.301Z,36.90
2018-06-28T12:27:08.648Z,35.20
2018-06-28T12:29:37.197Z,34.70
2018-06-28T12:32:05.703Z,33.80
2018-06-28T12:34:34.442Z,35.20
2018-06-28T12:37:02.912Z,35.30
2018-06-28T12:39:31.374Z,34.80
2018-06-28T12:42:00.072Z,34.80
2018-06-28T12:44:28.621Z,33.80
2018-06-28T12:49:05.270Z,34.70
2018-06-28T12:51:44.854Z,33.80
2018-06-28T12:54:14.084Z,35.10
2018-06-28T12:56:43.709Z,36.10
2018-06-28T12:59:13.721Z,36.00
2018-06-28T13:01:42.201Z,36.70
2018-06-28T13:04:10.621Z,37.10
2018-06-28T13:09:10.637Z,34.90
2018-06-28T13:11:39.091Z,34.30
2018-06-28T13:14:08.204Z,35.50
2018-06-28T13:16:36.988Z,35.10
2018-06-28T13:19:05.384Z,35.70
2018-06-28T13:21:33.784Z,36.90
2018-06-28T13:24:02.129Z,35.10
2018-06-28T13:26:30.478Z,33.80
2018-06-28T13:31:27.062Z,34.90
2018-06-28T13:33:55.478Z,34.90
2018-06-28T13:36:23.942Z,35.30
2018-06-28T13:38:52.436Z,35.50
2018-06-28T13:41:21.163Z,34.90
2018-06-28T13:43:49.578Z,35.50
2018-06-28T13:46:18.027Z,34.30
2018-06-28T13:48:46.641Z,34.70
2018-06-28T13:51:15.000Z,33.60
2018-06-28T13:53:43.384Z,34.30
2018-06-28T13:56:11.816Z,33.90
2018-06-28T13:58:40.163Z,32.00
2018-06-28T14:03:36.939Z,32.90
2018-06-28T14:08:33.636Z,32.60
2018-06-28T14:11:02.110Z,32.90
2018-06-28T14:13:31.103Z,33.90
2018-06-28T14:15:59.469Z,33.50
2018-06-28T14:18:27.877Z,33.00
2018-06-28T14:20:56.295Z,34.40
2018-06-28T14:23:25.117Z,33.30
2018-06-28T14:28:21.656Z,32.20
2018-06-28T14:30:50.006Z,33.50
2018-06-28T14:33:18.412Z,34.00
2018-06-28T14:35:47.468Z,33.80
2018-06-28T14:38:17.015Z,33.90
2018-06-28T14:40:45.481Z,34.80
2018-06-28T14:43:14.171Z,35.10
2018-06-28T14:45:42.625Z,34.70
2018-06-28T14:48:11.820Z,34.80
2018-06-28T14:50:40.674Z,34.80
2018-06-28T14:53:09.125Z,34.00
2018-06-28T14:58:05.770Z,34.20
2018-06-28T15:00:34.199Z,34.80
2018-06-28T15:03:02.790Z,35.20
2018-06-28T15:05:31.275Z,36.10
2018-06-28T15:07:59.795Z,36.40
2018-06-28T15:10:28.223Z,36.20
2018-06-28T15:12:56.909Z,36.10
2018-06-28T15:15:25.330Z,34.70
2018-06-28T15:17:53.678Z,35.80
2018-06-28T15:20:22.058Z,35.30
2018-06-28T15:22:50.480Z,35.20
2018-06-28T15:25:18.825Z,35.20
2018-06-28T15:27:47.310Z,36.50
2018-06-28T15:30:16.058Z,36.00
2018-06-28T15:32:44.432Z,36.20
2018-06-28T15:35:13.630Z,35.80
2018-06-28T15:37:42.066Z,35.90
2018-06-28T15:41:39.689Z,35.60
2018-06-28T15:44:08.096Z,35.40
2018-06-28T15:46:36.527Z,34.80
2018-06-28T15:51:33.046Z,36.40
2018-06-28T15:54:01.762Z,35.70
2018-06-28T15:56:30.103Z,36.30
2018-06-28T15:58:58.765Z,36.20
2018-06-28T16:01:27.105Z,35.50
2018-06-28T16:03:55.508Z,36.00
2018-06-28T16:06:24.424Z,37.60
2018-06-28T16:08:52.859Z,36.60
2018-06-28T16:11:21.979Z,36.20
2018-06-28T16:13:50.590Z,35.50
2018-06-28T16:16:19.217Z,36.20
2018-06-28T16:18:47.586Z,36.50
2018-06-28T16:21:16.193Z,36.50
2018-06-28T16:23:44.594Z,36.40
2018-06-28T16:26:12.990Z,36.60
2018-06-28T16:28:41.416Z,36.80
2018-06-28T16:31:10.033Z,38.00
2018-06-28T16:33:38.411Z,37.00
2018-06-28T16:36:06.897Z,37.40
2018-06-28T16:38:35.285Z,37.20
2018-06-28T16:41:03.731Z,38.10
2018-06-28T16:43:32.156Z,38.00
2018-06-28T16:46:00.540Z,37.50
2018-06-28T16:48:29.020Z,38.10
2018-06-28T16:50:57.757Z,38.50
2018-06-28T16:53:26.161Z,38.50
2018-06-28T16:55:55.190Z,38.80
2018-06-28T16:58:23.627Z,38.70
2018-06-28T17:00:52.094Z,38.10
2018-06-28T17:03:20.621Z,38.20
2018-06-28T17:05:49.077Z,38.40
2018-06-28T17:08:17.491Z,38.70
2018-06-28T17:10:45.907Z,38.80
2018-06-28T17:13:14.304Z,38.80
2018-06-28T17:15:42.827Z,38.90
2018-06-28T17:18:11.553Z,38.00
2018-06-28T17:20:40.330Z,38.20
2018-06-28T17:23:08.683Z,38.30
2018-06-28T17:25:37.071Z,38.40
2018-06-28T17:28:05.976Z,38.20
2018-06-28T17:30:34.392Z,38.50
2018-06-28T17:33:02.884Z,38.90
2018-06-28T17:35:31.301Z,39.10
2018-06-28T17:37:59.725Z,39.40
2018-06-28T17:40:28.131Z,39.50
2018-06-28T17:42:56.852Z,39.50
2018-06-28T17:45:25.271Z,40.00
2018-06-28T17:47:53.776Z,40.00
2018-06-28T17:50:22.104Z,40.20
2018-06-28T17:52:50.462Z,40.30
2018-06-28T17:55:18.961Z,40.90
2018-06-28T17:57:47.323Z,40.70
2018-06-28T18:00:16.609Z,41.10
2018-06-28T18:02:47.179Z,44.60
2018-06-28T18:05:17.243Z,47.10
2018-06-28T18:07:47.504Z,48.90
2018-06-28T18:10:16.298Z,49.50
2018-06-28T18:12:45.083Z,50.00
2018-06-28T18:15:15.557Z,50.10
2018-06-28T18:17:46.543Z,50.10
2018-06-28T18:20:15.182Z,50.00
2018-06-28T18:22:44.745Z,50.40
2018-06-28T18:25:13.138Z,50.30
2018-06-28T18:27:41.610Z,50.90
2018-06-28T18:30:10.075Z,50.90
2018-06-28T18:32:38.461Z,51.40
2018-06-28T18:35:06.899Z,51.80
2018-06-28T18:37:35.378Z,52.00
2018-06-28T18:40:04.432Z,52.30
2018-06-28T18:42:33.429Z,52.90
2018-06-28T18:45:01.967Z,53.10
2018-06-28T18:47:30.589Z,53.40
2018-06-28T18:49:59.215Z,53.50
2018-06-28T18:52:27.705Z,53.80
2018-06-28T18:54:56.177Z,54.00
2018-06-28T18:57:24.847Z,54.40
2018-06-28T18:59:53.424Z,54.90
2018-06-28T19:02:21.999Z,55.40
2018-06-28T19:04:50.501Z,56.30
2018-06-28T19:07:18.984Z,55.90
2018-06-28T19:09:53.949Z,56.00
2018-06-28T19:12:22.451Z,56.30
2018-06-28T19:14:56.347Z,56.50
2018-06-28T19:17:25.140Z,56.50
2018-06-28T19:19:53.637Z,56.70
2018-06-28T19:22:27.493Z,56.90
2018-06-28T19:24:55.977Z,57.30
2018-06-28T19:27:24.580Z,57.50
2018-06-28T19:29:58.478Z,57.70
2018-06-28T19:32:30.253Z,58.20
2018-06-28T19:34:59.027Z,58.60
2018-06-28T19:37:59.039Z,58.90
2018-06-28T19:40:32.835Z,58.90
2018-06-28T19:43:04.184Z,59.30
2018-06-28T19:45:32.680Z,59.60
2018-06-28T19:48:01.472Z,59.70
2018-06-28T19:50:36.415Z,59.70
2018-06-28T19:53:14.864Z,59.70
2018-06-28T19:55:43.424Z,60.00
2018-06-28T19:58:11.992Z,59.90
2018-06-28T20:00:45.659Z,59.80
2018-06-28T20:03:19.412Z,59.70
2018-06-28T20:05:48.370Z,59.90
2018-06-28T20:08:17.101Z,59.80
2018-06-28T20:10:45.774Z,60.40
2018-06-28T20:15:54.130Z,59.90
2018-06-28T20:18:28.143Z,59.50
2018-06-28T20:20:58.105Z,59.60
2018-06-28T20:23:26.643Z,59.50
2018-06-28T20:25:55.163Z,59.30
2018-06-28T20:28:29.012Z,59.40
2018-06-28T20:31:03.050Z,59.40
2018-06-28T20:33:37.085Z,59.70
2018-06-28T20:36:05.579Z,59.80
2018-06-28T20:38:34.025Z,60.00
2018-06-28T20:41:02.616Z,59.90
2018-06-28T20:43:31.121Z,59.90
2018-06-28T20:46:00.325Z,60.20
2018-06-28T20:48:28.830Z,60.00
2018-06-28T20:50:57.474Z,59.90
2018-06-28T20:53:26.058Z,60.10
2018-06-28T20:55:54.500Z,60.20
2018-06-28T20:58:22.959Z,60.30
2018-06-28T21:00:51.519Z,60.30
2018-06-28T21:03:20.104Z,60.40
2018-06-28T21:05:48.565Z,60.40
2018-06-28T21:08:16.965Z,60.40
2018-06-28T21:10:46.159Z,60.10
2018-06-28T21:13:14.551Z,60.50
2018-06-28T21:15:43.248Z,60.80
2018-06-28T21:18:11.754Z,60.60
2018-06-28T21:20:40.210Z,60.50
2018-06-28T21:23:08.684Z,60.80
2018-06-28T21:25:37.192Z,61.00
2018-06-28T21:28:05.700Z,60.90
2018-06-28T21:30:34.197Z,60.90
2018-06-28T21:33:02.609Z,60.60
2018-06-28T21:35:31.077Z,59.70
2018-06-28T21:37:59.787Z,59.10
2018-06-28T21:42:56.836Z,58.30
2018-06-28T21:45:25.280Z,57.60
2018-06-28T21:47:53.701Z,56.70
2018-06-28T21:50:25.951Z,56.30
2018-06-28T21:52:54.667Z,55.80
2018-06-28T21:55:23.292Z,55.30
2018-06-28T21:57:51.645Z,54.90
2018-06-28T22:00:36.134Z,54.90
2018-06-28T22:03:05.803Z,55.10
2018-06-28T22:05:34.711Z,55.20
2018-06-28T22:08:03.660Z,55.20
2018-06-28T22:10:32.113Z,55.50
2018-06-28T22:13:00.532Z,56.00
2018-06-28T22:15:30.211Z,56.60
2018-06-28T22:18:00.902Z,57.70
2018-06-28T22:20:30.138Z,59.10
2018-06-28T22:22:58.744Z,58.80
2018-06-28T22:25:29.048Z,58.30
2018-06-28T22:27:57.449Z,58.40
2018-06-28T22:30:25.910Z,58.40
2018-06-28T22:32:54.340Z,58.30
2018-06-28T22:35:22.717Z,58.40
2018-06-28T22:37:51.160Z,58.60
2018-06-28T22:40:19.581Z,58.80
2018-06-28T22:42:47.899Z,58.80
2018-06-28T22:45:16.345Z,58.70
2018-06-28T22:47:44.746Z,58.80
2018-06-28T22:50:13.161Z,58.60
2018-06-28T22:52:41.528Z,58.60
2018-06-28T22:55:09.980Z,59.00
2018-06-28T22:57:38.417Z,58.80
2018-06-28T23:00:07.706Z,58.50
2018-06-28T23:02:36.153Z,58.60
2018-06-28T23:05:04.993Z,58.60
2018-06-28T23:07:33.393Z,58.40
2018-06-28T23:10:01.781Z,58.40
2018-06-28T23:12:30.191Z,58.50
2018-06-28T23:17:26.778Z,58.90
2018-06-28T23:19:55.214Z,58.70
2018-06-28T23:22:37.512Z,58.70
2018-06-28T23:25:05.912Z,59.20
2018-06-28T23:27:34.360Z,59.80
2018-06-28T23:30:02.777Z,59.40
2018-06-28T23:32:31.241Z,59.70
2018-06-28T23:34:59.774Z,59.70
2018-06-28T23:37:28.244Z,60.90
2018-06-28T23:39:56.684Z,61.70
2018-06-28T23:42:25.146Z,62.40
2018-06-28T23:44:54.342Z,63.00
2018-06-28T23:47:22.946Z,63.50
2018-06-28T23:49:51.405Z,63.40
2018-06-28T23:52:20.173Z,63.30
2018-06-28T23:54:48.524Z,63.90
2018-06-28T23:57:16.916Z,63.60
2018-06-28T23:59:45.314Z,64.00
